Time;durP1;ratioP1;P1;durP2;ratioP2;P2;SDS_P1;SDS_P2;PMS_P1;PMS_P2;Temp;Humidity;BMP_temperature;BMP_pressure;BME280_temperature;BME280_humidity;BME280_pressure;Samples;Min_cycle;Max_cycle;Signal;HPM_P1;HPM_P2
2024/03/01 00:00:22;;;;;;;34.35;24.60;;;;;;;10.97;66.03;97855.59;5072424;28;20040;-49
2024/03/01 00:02:51;;;;;;;34.30;24.50;;;;;;;10.98;65.44;97850.13;5071250;28;20062;-49
2024/03/01 00:05:16;;;;;;;34.88;26.63;;;;;;;10.89;65.01;97851.47;5072281;28;20027;-49
2024/03/01 00:07:42;;;;;;;32.20;25.55;;;;;;;10.83;65.18;97839.25;5071134;28;20028;-49
2024/03/01 00:10:08;;;;;;;36.83;24.88;;;;;;;10.79;65.09;97831.00;5072180;28;20024;-49
2024/03/01 00:12:35;;;;;;;36.53;25.85;;;;;;;10.81;65.09;97836.03;5071175;28;20017;-49
2024/03/01 00:15:01;;;;;;;33.10;23.88;;;;;;;10.76;64.99;97838.50;5072072;28;20039;-49
2024/03/01 00:17:26;;;;;;;36.50;25.65;;;;;;;10.75;65.04;97845.59;5072100;28;20028;-49
2024/03/01 00:19:52;;;;;;;38.63;26.25;;;;;;;10.73;65.42;97854.72;5072155;28;20024;-49
2024/03/01 00:22:18;;;;;;;33.00;24.85;;;;;;;10.55;64.86;97853.72;5072109;28;20517;-49
2024/03/01 00:24:44;;;;;;;35.78;24.52;;;;;;;10.30;65.84;97845.13;5087623;28;20102;-49
2024/03/01 00:27:10;;;;;;;37.33;25.27;;;;;;;10.34;66.66;97849.72;5072004;28;20024;-49
2024/03/01 00:29:37;;;;;;;31.77;24.02;;;;;;;10.48;66.82;97852.19;5072012;28;20021;-49
2024/03/01 00:32:04;;;;;;;32.90;26.67;;;;;;;10.48;65.87;97850.34;5070576;28;20028;-49
2024/03/01 00:34:29;;;;;;;34.35;25.20;;;;;;;10.39;66.09;97856.94;5070223;28;20506;-49
2024/03/01 00:36:55;;;;;;;33.83;25.67;;;;;;;10.37;66.30;97851.09;5072214;28;20056;-49
2024/03/01 00:39:21;;;;;;;35.03;26.75;;;;;;;10.31;66.58;97854.59;5071850;28;20103;-49
2024/03/01 00:41:46;;;;;;;36.53;26.27;;;;;;;10.25;66.80;97848.38;5070753;28;20020;-49
2024/03/01 00:44:12;;;;;;;37.38;26.10;;;;;;;10.18;67.22;97853.69;5071805;28;20025;-49
2024/03/01 00:46:38;;;;;;;36.40;27.75;;;;;;;10.19;67.39;97844.00;5069577;28;20480;-48
2024/03/01 00:49:03;;;;;;;31.90;24.60;;;;;;;10.26;67.50;97855.25;5071798;28;20020;-49
2024/03/01 00:51:29;;;;;;;36.70;26.52;;;;;;;10.31;67.72;97858.03;5053676;28;20032;-49
2024/03/01 00:53:55;;;;;;;36.50;25.98;;;;;;;10.41;67.48;97859.34;5071665;28;20024;-49
2024/03/01 00:56:23;;;;;;;98.47;63.95;;;;;;;10.27;67.42;97856.81;5071696;28;20020;-49
2024/03/01 00:58:49;;;;;;;58.15;39.55;;;;;;;10.04;68.51;97851.41;5071659;28;20032;-49
2024/03/01 01:01:15;;;;;;;40.22;29.75;;;;;;;9.98;69.48;97853.91;5070481;28;20032;-49
2024/03/01 01:03:40;;;;;;;33.00;25.63;;;;;;;10.02;69.12;97848.22;5070583;28;20466;-49
2024/03/01 01:06:06;;;;;;;51.97;38.78;;;;;;;9.87;69.22;97846.75;5070274;28;20021;-49
2024/03/01 01:08:32;;;;;;;43.22;28.00;;;;;;;9.76;69.68;97845.66;5070246;28;20028;-49
2024/03/01 01:10:58;;;;;;;41.38;27.40;;;;;;;9.71;70.02;97855.97;5070540;28;20020;-49
2024/03/01 01:13:23;;;;;;;35.38;27.17;;;;;;;9.79;70.45;97855.69;5071520;28;20029;-49
2024/03/01 01:15:49;;;;;;;35.15;25.73;;;;;;;10.00;70.14;97845.84;5071918;28;20028;-49
2024/03/01 01:18:16;;;;;;;35.22;26.13;;;;;;;10.17;69.87;97846.84;5070476;28;20135;-49
2024/03/01 01:20:42;;;;;;;33.67;26.10;;;;;;;10.17;69.42;97844.22;5071472;28;20036;-49
2024/03/01 01:23:08;;;;;;;33.97;24.38;;;;;;;10.06;69.13;97846.75;5070141;28;20082;-49
2024/03/01 01:25:36;;;;;;;36.03;25.42;;;;;;;9.94;69.54;97841.44;5071685;28;20028;-49
2024/03/01 01:28:03;;;;;;;35.20;26.45;;;;;;;9.86;69.65;97849.56;5071367;28;20052;-49
2024/03/01 01:30:28;;;;;;;35.70;24.38;;;;;;;9.84;69.81;97855.06;5071287;28;20078;-49
2024/03/01 01:32:54;;;;;;;34.72;25.08;;;;;;;9.87;70.02;97862.47;5071347;28;20029;-49
2024/03/01 01:35:20;;;;;;;36.80;26.08;;;;;;;9.97;70.38;97862.78;5069858;28;20087;-49
2024/03/01 01:37:45;;;;;;;37.03;26.20;;;;;;;10.05;70.07;97869.56;5071285;28;20032;-49
2024/03/01 01:40:14;;;;;;;39.65;23.90;;;;;;;10.04;69.78;97872.38;5071264;28;20036;-49
2024/03/01 01:42:40;;;;;;;32.42;24.02;;;;;;;10.07;69.69;97872.75;5071169;28;20035;-49
2024/03/01 01:45:06;;;;;;;39.97;25.38;;;;;;;10.13;70.30;97871.09;5071249;28;20029;-49
2024/03/01 01:47:33;;;;;;;30.95;23.83;;;;;;;10.20;70.09;97867.41;5071115;28;20545;-49
2024/03/01 01:50:00;;;;;;;33.60;26.38;;;;;;;10.18;69.39;97863.38;5071193;28;20025;-49
2024/03/01 01:52:27;;;;;;;35.47;24.20;;;;;;;10.15;69.70;97869.06;5069829;28;20123;-49
2024/03/01 01:54:53;;;;;;;31.52;24.60;;;;;;;10.15;69.59;97869.84;5071034;28;20035;-49
2024/03/01 01:57:20;;;;;;;32.78;22.42;;;;;;;10.10;69.79;97861.84;5069816;28;20028;-48
2024/03/01 01:59:46;;;;;;;31.30;24.33;;;;;;;10.17;69.77;97867.03;5074348;28;20483;-49
2024/03/01 02:02:12;;;;;;;33.65;23.77;;;;;;;10.08;69.67;97868.31;5073339;28;20033;-49
2024/03/01 02:04:39;;;;;;;33.53;24.75;;;;;;;10.25;70.03;97860.69;5074584;28;20035;-49
2024/03/01 02:07:05;;;;;;;38.78;26.42;;;;;;;10.42;69.78;97866.19;5074593;28;20252;-49
2024/03/01 02:09:31;;;;;;;29.90;23.58;;;;;;;10.51;69.38;97865.66;5074608;28;20056;-49
2024/03/01 02:11:57;;;;;;;36.42;24.23;;;;;;;10.66;69.39;97873.16;5073221;28;20028;-49
2024/03/01 02:14:23;;;;;;;31.98;24.08;;;;;;;10.77;68.81;97869.78;5074411;28;20077;-49
2024/03/01 02:16:48;;;;;;;29.67;23.90;;;;;;;10.92;68.78;97877.25;5073149;28;20036;-49
2024/03/01 02:19:17;;;;;;;33.08;24.00;;;;;;;11.10;68.18;97886.13;5074311;28;20035;-49
2024/03/01 02:22:02;;;;;;;36.40;24.25;;;;;;;11.23;67.57;97887.75;5074355;28;20033;-49
2024/03/01 02:24:28;;;;;;;30.43;23.77;;;;;;;11.25;66.91;97886.53;5073043;28;20116;-49
2024/03/01 02:26:57;;;;;;;33.85;23.58;;;;;;;11.30;66.95;97888.47;5072984;28;20255;-49
2024/03/01 02:29:23;;;;;;;33.53;23.27;;;;;;;11.34;66.64;97887.00;5072934;28;20559;-49
2024/03/01 02:31:48;;;;;;;34.83;24.58;;;;;;;11.34;66.36;97887.00;5074190;28;20036;-49
2024/03/01 02:34:14;;;;;;;33.65;25.35;;;;;;;11.20;66.20;97886.38;5073960;28;20024;-49
2024/03/01 02:36:40;;;;;;;29.33;22.73;;;;;;;11.13;65.89;97886.47;5074127;28;20115;-49
2024/03/01 02:39:16;;;;;;;32.38;24.13;;;;;;;10.93;66.34;97892.00;5072776;28;20090;-49
2024/03/01 02:41:44;;;;;;;32.35;23.85;;;;;;;10.72;66.57;97900.34;5074009;28;20113;-49
2024/03/01 02:44:09;;;;;;;31.85;24.58;;;;;;;10.62;67.09;97905.31;5072677;28;20024;-49
2024/03/01 02:46:35;;;;;;;35.92;24.35;;;;;;;10.68;68.08;97909.66;5073861;28;20107;-49
2024/03/01 02:49:02;;;;;;;37.70;27.48;;;;;;;10.75;68.75;97910.41;5073914;28;20059;-49
2024/03/01 02:51:28;;;;;;;30.23;23.23;;;;;;;10.99;69.31;97908.69;5073811;28;20029;-49
2024/03/01 02:53:53;;;;;;;32.92;24.27;;;;;;;11.25;68.25;97914.59;5073697;28;20540;-49
2024/03/01 02:56:19;;;;;;;36.85;25.00;;;;;;;11.40;67.32;97917.63;5072406;28;20071;-49
2024/03/01 02:58:45;;;;;;;36.55;26.60;;;;;;;11.53;67.07;97916.63;5073695;28;20032;-49
2024/03/01 03:01:10;;;;;;;28.38;23.50;;;;;;;11.60;66.28;97912.88;5072265;28;20078;-49
2024/03/01 03:03:39;;;;;;;33.75;23.58;;;;;;;11.59;66.27;97916.53;5072275;28;20028;-49
2024/03/01 03:06:05;;;;;;;32.00;22.30;;;;;;;11.52;65.79;97917.66;5073528;28;20107;-49
2024/03/01 03:08:31;;;;;;;29.98;22.98;;;;;;;11.50;65.38;97917.88;5073441;28;20108;-49
2024/03/01 03:10:57;;;;;;;32.08;23.33;;;;;;;11.41;65.16;97929.75;5072587;28;20119;-49
2024/03/01 03:13:22;;;;;;;31.85;24.05;;;;;;;11.35;65.21;97928.03;5073373;28;20059;-49
2024/03/01 03:15:49;;;;;;;31.02;23.73;;;;;;;11.19;65.46;97932.88;5071934;28;20048;-49
2024/03/01 03:18:15;;;;;;;29.30;23.63;;;;;;;10.99;65.28;97938.38;5073557;28;20401;-49
2024/03/01 03:20:40;;;;;;;31.55;22.85;;;;;;;10.83;66.21;97938.97;5073143;28;20490;-49
2024/03/01 03:23:06;;;;;;;36.22;25.67;;;;;;;10.84;66.05;97947.66;5073169;28;20063;-49
2024/03/01 03:25:32;;;;;;;29.52;23.00;;;;;;;10.80;66.24;97942.03;5073317;28;20024;-49
2024/03/01 03:27:58;;;;;;;29.17;24.13;;;;;;;10.74;66.64;97940.28;5073347;28;20032;-49
2024/03/01 03:30:24;;;;;;;35.83;24.65;;;;;;;10.71;67.12;97949.41;5072961;28;20542;-49
2024/03/01 03:32:49;;;;;;;31.13;24.13;;;;;;;10.73;67.59;97954.44;5072953;28;20085;-49
2024/03/01 03:35:15;;;;;;;35.47;26.05;;;;;;;10.73;68.11;97957.06;5071484;28;20048;-49
2024/03/01 03:37:41;;;;;;;37.95;25.20;;;;;;;10.55;67.85;97958.66;5072814;28;20031;-49
2024/03/01 03:40:14;;;;;;;44.35;29.00;;;;;;;10.40;69.22;97955.56;5071485;28;20119;-49
2024/03/01 03:42:42;;;;;;;39.30;29.75;;;;;;;10.28;70.69;97954.66;5072703;28;20029;-49
2024/03/01 03:45:09;;;;;;;40.95;30.45;;;;;;;10.07;72.41;97964.53;5071361;28;20044;-49
2024/03/01 03:47:36;;;;;;;60.42;50.80;;;;;;;9.91;74.57;97972.91;5071481;28;20025;-48
2024/03/01 03:50:07;;;;;;;34.58;26.45;;;;;;;9.92;77.57;97970.09;5071326;28;20498;-48
2024/03/01 03:52:36;;;;;;;40.70;28.98;;;;;;;10.07;80.45;97985.50;5071323;28;20376;-49
2024/03/01 03:55:06;;;;;;;32.70;24.83;;;;;;;10.07;82.91;97987.31;5071153;28;20070;-48
2024/03/01 03:57:33;;;;;;;39.42;29.00;;;;;;;9.83;84.01;97991.53;5071145;28;20031;-49
2024/03/01 04:00:00;;;;;;;36.15;27.95;;;;;;;9.58;86.75;98000.16;5071135;28;20055;-48
2024/03/01 04:02:26;;;;;;;40.42;28.50;;;;;;;9.51;89.61;97996.75;5071024;28;20033;-48
2024/03/01 04:04:51;;;;;;;42.33;28.83;;;;;;;9.45;91.20;98002.84;5072343;28;20025;-48
2024/03/01 04:07:17;;;;;;;37.65;29.27;;;;;;;9.29;93.30;98002.31;5072369;28;20024;-48
2024/03/01 04:09:43;;;;;;;40.70;27.88;;;;;;;9.22;94.58;98004.16;5072272;28;20106;-48
2024/03/01 04:12:09;;;;;;;40.80;28.55;;;;;;;9.25;96.74;98006.34;5072234;28;20024;-48
2024/03/01 04:14:35;;;;;;;46.35;32.00;;;;;;;9.17;97.43;98007.38;5087820;28;20110;-48
2024/03/01 04:17:01;;;;;;;47.33;31.08;;;;;;;9.08;98.52;98016.50;5072105;28;20085;-48
2024/03/01 04:19:27;;;;;;;45.28;27.33;;;;;;;9.27;100.00;98009.56;5070788;28;20119;-47
2024/03/01 04:21:52;;;;;;;47.13;31.13;;;;;;;9.44;100.00;98009.91;5071959;28;20410;-48
2024/03/01 04:24:19;;;;;;;77.72;66.45;;;;;;;9.40;100.00;98014.75;5072309;28;20028;-48
2024/03/01 04:26:45;;;;;;;39.20;28.50;;;;;;;9.38;100.00;98016.78;5072068;28;20028;-48
2024/03/01 04:29:11;;;;;;;42.00;30.38;;;;;;;9.06;100.00;98017.72;5072053;28;20028;-48
2024/03/01 04:31:38;;;;;;;40.70;30.02;;;;;;;8.89;100.00;98018.16;5071920;28;20505;-48
2024/03/01 04:34:06;;;;;;;38.30;27.75;;;;;;;8.79;100.00;98018.59;5071617;28;20063;-49
2024/03/01 04:36:36;;;;;;;38.88;28.30;;;;;;;8.73;100.00;98023.84;5071894;28;20090;-48
2024/03/01 04:39:05;;;;;;;38.83;27.58;;;;;;;8.71;100.00;98023.22;5070575;28;20035;-48
2024/03/01 04:41:31;;;;;;;39.20;25.20;;;;;;;8.73;100.00;98023.84;5072083;28;20060;-48
2024/03/01 04:43:57;;;;;;;42.17;28.73;;;;;;;8.74;100.00;98026.25;5071820;28;20062;-48
2024/03/01 04:46:23;;;;;;;33.22;24.13;;;;;;;8.77;100.00;98031.09;5071780;28;20028;-48
2024/03/01 04:48:49;;;;;;;29.10;20.70;;;;;;;8.64;100.00;98036.34;5071805;28;20020;-48
2024/03/01 04:51:14;;;;;;;30.23;22.38;;;;;;;8.54;100.00;98046.41;5071784;28;20028;-48
2024/03/01 04:53:41;;;;;;;31.13;22.58;;;;;;;8.53;100.00;98047.41;5070348;28;20032;-48
2024/03/01 04:56:11;;;;;;;28.75;21.88;;;;;;;8.68;100.00;98048.00;5071668;28;20043;-48
2024/03/01 04:58:36;;;;;;;35.17;27.10;;;;;;;8.79;100.00;98042.16;5071665;28;20067;-48
2024/03/01 05:01:02;;;;;;;26.55;20.92;;;;;;;8.93;100.00;98047.34;5071686;28;20052;-48
2024/03/01 05:03:29;;;;;;;106.53;82.75;;;;;;;9.10;100.00;98050.31;5071852;28;20561;-49
2024/03/01 05:05:56;;;;;;;48.72;33.67;;;;;;;9.23;100.00;98049.47;5071631;28;20020;-48
2024/03/01 05:08:22;;;;;;;38.85;27.08;;;;;;;9.35;100.00;98042.56;5070289;28;20032;-48
2024/03/01 05:10:49;;;;;;;33.95;24.00;;;;;;;9.33;100.00;98049.81;5071550;28;20029;-48
2024/03/01 05:13:20;;;;;;;28.73;22.08;;;;;;;9.33;100.00;98040.16;5071579;28;20040;-48
2024/03/01 05:15:46;;;;;;;30.80;22.40;;;;;;;9.32;100.00;98051.66;5071317;28;20111;-48
2024/03/01 05:18:12;;;;;;;27.38;19.92;;;;;;;9.22;100.00;98043.44;5071509;28;20491;-48
2024/03/01 05:20:39;;;;;;;35.38;24.42;;;;;;;9.24;100.00;98045.84;5070168;28;20040;-48
2024/03/01 05:23:05;;;;;;;36.15;25.52;;;;;;;9.30;100.00;98051.06;5070426;28;20032;-48
2024/03/01 05:25:30;;;;;;;38.75;24.95;;;;;;;9.36;100.00;98044.19;5071337;28;20029;-48
2024/03/01 05:27:56;;;;;;;34.25;23.13;;;;;;;9.52;100.00;98042.91;5071397;28;20521;-48
2024/03/01 05:30:23;;;;;;;39.00;27.42;;;;;;;9.52;100.00;98050.78;5071352;28;20112;-48
2024/03/01 05:32:51;;;;;;;37.22;27.95;;;;;;;9.44;100.00;98043.94;5071663;28;20476;-48
2024/03/01 05:35:21;;;;;;;44.20;27.38;;;;;;;9.40;100.00;98046.19;5074932;28;20045;-49
2024/03/01 05:37:47;;;;;;;31.48;23.67;;;;;;;9.50;100.00;98047.56;5075177;28;20028;-48
2024/03/01 05:40:16;;;;;;;36.47;26.77;;;;;;;9.48;100.00;98041.72;5075106;28;20031;-48
2024/03/01 05:42:45;;;;;;;60.22;53.47;;;;;;;9.45;100.00;98047.38;5075291;28;20051;-48
2024/03/01 05:45:12;;;;;;;37.08;28.48;;;;;;;9.48;100.00;98049.59;5073704;28;20461;-48
2024/03/01 05:47:39;;;;;;;32.13;23.38;;;;;;;9.51;100.00;98046.53;5075190;28;20091;-48
2024/03/01 05:50:06;;;;;;;33.15;23.10;;;;;;;9.50;100.00;98050.19;5074893;28;20036;-48
2024/03/01 05:52:36;;;;;;;60.17;53.88;;;;;;;9.53;100.00;98055.78;5074908;28;20099;-48
2024/03/01 05:55:08;;;;;;;30.58;22.75;;;;;;;9.48;100.00;98049.59;5074760;28;20028;-48
2024/03/01 05:57:35;;;;;;;34.92;27.48;;;;;;;9.54;100.00;98048.75;5074845;28;20020;-48
2024/03/01 06:00:09;;;;;;;28.48;22.45;;;;;;;9.55;100.00;98045.91;5074799;28;20089;-48
2024/03/01 06:02:38;;;;;;;35.35;21.35;;;;;;;9.56;100.00;98044.91;5074679;28;20435;-48
2024/03/01 06:05:04;;;;;;;24.00;19.15;;;;;;;9.63;100.00;98044.06;5074644;28;20169;-49
2024/03/01 06:07:29;;;;;;;32.20;21.20;;;;;;;9.64;100.00;98040.41;5074627;28;20506;-48
2024/03/01 06:09:56;;;;;;;28.67;20.45;;;;;;;9.65;100.00;98049.88;5074930;28;20430;-48
2024/03/01 06:12:22;;;;;;;23.67;17.85;;;;;;;9.75;100.00;98056.28;5074501;28;20394;-48
2024/03/01 06:14:47;;;;;;;27.63;22.35;;;;;;;9.91;100.00;98052.34;5073109;28;20039;-48
2024/03/01 06:17:14;;;;;;;35.42;27.73;;;;;;;10.10;100.00;98044.56;5074470;28;20452;-48
2024/03/01 06:19:40;;;;;;;38.45;31.40;;;;;;;10.19;100.00;98049.31;5074418;28;20162;-48
2024/03/01 06:22:06;;;;;;;32.78;26.80;;;;;;;10.25;100.00;98046.88;5074312;28;20112;-48
2024/03/01 06:24:32;;;;;;;43.55;38.90;;;;;;;10.22;100.00;98053.34;5074282;28;20016;-48
2024/03/01 06:26:58;;;;;;;46.97;41.95;;;;;;;10.11;100.00;98051.41;5074302;28;20024;-48
2024/03/01 06:29:23;;;;;;;35.17;26.45;;;;;;;9.94;100.00;98051.94;5074227;28;20025;-49
2024/03/01 06:31:50;;;;;;;24.60;19.65;;;;;;;9.85;100.00;98052.41;5074217;28;20039;-48
2024/03/01 06:34:16;;;;;;;86.32;77.53;;;;;;;9.81;100.00;98059.88;5072553;28;20043;-49
2024/03/01 06:36:41;;;;;;;35.95;27.98;;;;;;;9.83;100.00;98064.91;5072787;28;20028;-48
2024/03/01 06:39:08;;;;;;;26.35;20.25;;;;;;;9.87;100.00;98063.47;5056096;28;20043;-49
2024/03/01 06:41:34;;;;;;;55.10;49.67;;;;;;;9.98;100.00;98063.59;5074308;28;20025;-48
2024/03/01 06:44:00;;;;;;;49.15;36.65;;;;;;;10.32;100.00;98061.59;5073467;28;20478;-48
2024/03/01 06:46:27;;;;;;;31.80;22.02;;;;;;;10.53;100.00;98055.16;5071842;28;20032;-48
2024/03/01 06:48:52;;;;;;;31.05;19.80;;;;;;;10.59;100.00;98056.09;5073918;28;20020;-48
2024/03/01 06:51:18;;;;;;;28.52;17.73;;;;;;;10.39;100.00;98051.03;5072508;28;20450;-48
2024/03/01 06:53:44;;;;;;;35.25;20.20;;;;;;;10.11;100.00;98060.09;5073644;28;20114;-48
2024/03/01 06:56:10;;;;;;;30.15;20.13;;;;;;;9.88;100.00;98065.88;5073768;28;20040;-48
2024/03/01 06:58:36;;;;;;;28.13;18.23;;;;;;;9.78;100.00;98060.31;5072357;28;20028;-49
2024/03/01 07:01:04;;;;;;;24.40;18.42;;;;;;;9.63;100.00;98065.81;5073696;28;20270;-48
2024/03/01 07:03:30;;;;;;;24.85;18.52;;;;;;;9.76;100.00;98067.56;5073827;28;20028;-48
2024/03/01 07:05:56;;;;;;;31.75;19.67;;;;;;;9.83;100.00;98072.78;5073477;28;20025;-48
2024/03/01 07:08:22;;;;;;;26.27;19.05;;;;;;;9.84;100.00;98069.13;5073527;28;20051;-48
2024/03/01 07:10:50;;;;;;;28.70;19.73;;;;;;;9.87;100.00;98066.88;5072169;28;20024;-49
2024/03/01 07:13:16;;;;;;;33.47;19.45;;;;;;;9.87;100.00;98072.13;5073447;28;20510;-48
2024/03/01 07:15:41;;;;;;;26.35;21.52;;;;;;;9.94;100.00;98072.09;5073283;28;20059;-48
2024/03/01 07:18:07;;;;;;;29.98;23.95;;;;;;;9.93;100.00;98067.88;5073338;28;20093;-48
2024/03/01 07:20:33;;;;;;;23.88;18.23;;;;;;;10.12;100.00;98076.59;5073279;28;20026;-49
2024/03/01 07:22:58;;;;;;;29.13;18.10;;;;;;;10.45;100.00;98070.38;5073247;28;20028;-48
2024/03/01 07:25:24;;;;;;;30.17;16.98;;;;;;;10.62;100.00;98066.16;5073158;28;20025;-48
2024/03/01 07:27:50;;;;;;;23.67;17.63;;;;;;;10.60;100.00;98070.81;5073409;28;20104;-48
2024/03/01 07:30:15;;;;;;;24.60;19.25;;;;;;;10.39;100.00;98072.00;5073131;28;20035;-48
2024/03/01 07:32:42;;;;;;;34.83;19.08;;;;;;;10.34;100.00;98071.84;5071736;28;20187;-48
2024/03/01 07:35:08;;;;;;;25.65;17.55;;;;;;;10.32;100.00;98061.59;5072659;28;20522;-49
2024/03/01 07:37:34;;;;;;;28.52;17.85;;;;;;;10.67;100.00;98066.31;5071555;28;20024;-48
2024/03/01 07:40:00;;;;;;;24.42;16.65;;;;;;;11.04;100.00;98065.56;5072872;28;20380;-48
2024/03/01 07:42:26;;;;;;;26.77;18.02;;;;;;;11.37;100.00;98068.63;5071461;28;20499;-48
2024/03/01 07:44:56;;;;;;;23.60;18.48;;;;;;;11.62;100.00;98061.66;5072796;28;20017;-48
2024/03/01 07:47:25;;;;;;;33.17;20.48;;;;;;;11.82;100.00;98064.03;5072683;28;20016;-48
2024/03/01 07:49:51;;;;;;;24.73;18.98;;;;;;;12.01;100.00;98065.56;5071410;28;20054;-48
2024/03/01 07:52:16;;;;;;;26.10;19.02;;;;;;;12.14;100.00;98062.75;5072623;28;20066;-49
2024/03/01 07:54:42;;;;;;;27.00;18.75;;;;;;;12.19;100.00;98064.72;5072563;28;20098;-49
2024/03/01 07:57:08;;;;;;;23.23;18.02;;;;;;;12.14;100.00;98065.41;5071135;28;20040;-49
2024/03/01 07:59:34;;;;;;;27.98;19.30;;;;;;;12.06;100.00;98065.72;5071482;28;20020;-49
2024/03/01 08:02:00;;;;;;;30.42;26.70;;;;;;;11.86;100.00;98067.81;5072439;28;20027;-49
2024/03/01 08:04:27;;;;;;;37.20;28.90;;;;;;;11.72;100.00;98067.19;5072290;28;20038;-49
2024/03/01 08:06:53;;;;;;;29.45;18.83;;;;;;;11.77;100.00;98062.88;5072395;28;20021;-48
2024/03/01 08:09:30;;;;;;;27.63;18.08;;;;;;;11.81;100.00;98068.47;5072319;28;20016;-48
2024/03/01 08:11:56;;;;;;;28.75;17.98;;;;;;;11.79;100.00;98063.44;5072303;28;20021;-49
2024/03/01 08:14:31;;;;;;;26.73;18.85;;;;;;;11.74;100.00;98076.44;5071201;28;20016;-48
2024/03/01 08:16:57;;;;;;;22.98;15.38;;;;;;;11.82;100.00;98072.69;5072161;28;20028;-48
2024/03/01 08:19:36;;;;;;;24.98;16.50;;;;;;;11.91;100.00;98078.47;5070785;28;20528;-48
2024/03/01 08:22:12;;;;;;;25.33;17.33;;;;;;;11.99;100.00;98067.63;5070758;28;20078;-48
2024/03/01 08:24:40;;;;;;;23.10;16.63;;;;;;;12.12;100.00;98067.44;5072094;28;20024;-48
2024/03/01 08:27:10;;;;;;;22.38;15.43;;;;;;;12.12;100.00;98072.72;5072087;28;20498;-49
2024/03/01 08:29:40;;;;;;;31.35;17.17;;;;;;;12.08;100.00;98076.03;5072071;28;20031;-48
2024/03/01 08:32:28;;;;;;;22.65;15.13;;;;;;;12.06;100.00;98078.88;5072064;28;20031;-48
2024/03/01 08:34:57;;;;;;;33.85;26.42;;;;;;;12.07;100.00;98082.28;5070433;28;20036;-49
2024/03/01 08:37:25;;;;;;;21.73;18.35;;;;;;;12.06;100.00;98081.50;5071985;28;20032;-48
2024/03/01 08:39:55;;;;;;;26.40;17.25;;;;;;;11.98;100.00;98081.81;5070567;28;20103;-48
2024/03/01 08:42:22;;;;;;;41.78;29.45;;;;;;;11.79;100.00;98086.28;5072138;28;20056;-49
2024/03/01 08:44:59;;;;;;;44.75;38.13;;;;;;;11.88;100.00;98092.84;5070506;28;20020;-48
2024/03/01 08:47:28;;;;;;;27.80;19.77;;;;;;;12.04;100.00;98094.06;5071806;28;20032;-48
2024/03/01 08:50:28;;;;;;;25.80;14.98;;;;;;;12.18;100.00;98090.22;5071721;28;20035;-48
2024/03/01 08:52:55;;;;;;;18.23;14.18;;;;;;;12.26;100.00;98093.56;5070481;28;20024;-49
2024/03/01 08:55:40;;;;;;;23.83;14.45;;;;;;;12.39;100.00;98098.59;5071591;28;20636;-48
2024/03/01 08:58:14;;;;;;;26.52;15.80;;;;;;;12.66;100.00;98095.56;5070740;28;20451;-48
2024/03/01 09:00:48;;;;;;;17.15;12.68;;;;;;;12.76;100.00;98098.44;5071704;28;20103;-49
2024/03/01 09:03:20;;;;;;;18.48;14.93;;;;;;;12.91;100.00;98095.34;5071639;28;20495;-48
2024/03/01 09:05:47;;;;;;;24.42;16.25;;;;;;;12.95;100.00;98092.00;5071595;28;20090;-49
2024/03/01 09:08:18;;;;;;;28.65;14.70;;;;;;;12.97;100.00;98089.16;5072709;28;20024;-48
2024/03/01 09:10:44;;;;;;;42.08;34.17;;;;;;;12.98;100.00;98090.75;5075736;28;20035;-48
2024/03/01 09:13:15;;;;;;;40.03;31.05;;;;;;;13.20;100.00;98077.78;5075683;28;20031;-49
2024/03/01 09:15:44;;;;;;;36.58;20.52;;;;;;;13.48;100.00;98081.50;5075546;28;20025;-49
2024/03/01 09:18:31;;;;;;;17.38;15.55;;;;;;;13.51;100.00;98078.44;5075807;28;20065;-49
2024/03/01 09:20:57;;;;;;;16.13;10.98;;;;;;;13.92;100.00;98080.00;5075514;28;20020;-48
2024/03/01 09:23:22;;;;;;;18.83;13.68;;;;;;;14.21;100.00;98082.59;5074171;28;20074;-49
2024/03/01 09:25:48;;;;;;;19.23;15.00;;;;;;;14.33;100.00;98079.88;5074091;28;20025;-49
2024/03/01 09:28:20;;;;;;;15.18;10.63;;;;;;;14.46;100.00;98084.84;5075318;28;20099;-49
2024/03/01 09:30:50;;;;;;;16.92;13.50;;;;;;;14.56;100.00;98071.03;5075276;28;20036;-49
2024/03/01 09:33:20;;;;;;;20.08;11.50;;;;;;;14.79;100.00;98077.97;5075363;28;20510;-49
2024/03/01 09:35:50;;;;;;;15.88;9.10;;;;;;;15.11;100.00;98072.03;5075039;28;20041;-48
2024/03/01 09:38:16;;;;;;;11.32;7.80;;;;;;;15.58;98.88;98066.28;5075437;28;20440;-49
2024/03/01 09:40:50;;;;;;;14.32;5.97;;;;;;;16.05;94.70;98070.22;5073825;28;20020;-49
2024/03/01 09:43:35;;;;;;;8.57;5.30;;;;;;;16.16;88.74;98063.97;5075175;28;20038;-49
2024/03/01 09:46:15;;;;;;;10.40;6.22;;;;;;;16.32;87.96;98064.91;5075101;28;20671;-48
2024/03/01 09:49:13;;;;;;;7.43;5.28;;;;;;;16.50;88.09;98064.50;5075075;28;20124;-49
2024/03/01 09:52:19;;;;;;;11.85;6.82;;;;;;;16.57;81.57;98064.28;5066759;28;20028;-48
2024/03/01 09:55:06;;;;;;;13.65;7.30;;;;;;;16.72;82.29;98055.63;5073600;28;20016;-49
2024/03/01 09:57:56;;;;;;;13.88;9.90;;;;;;;17.05;78.68;98066.97;5074931;28;20550;-48
2024/03/01 10:00:33;;;;;;;10.52;9.43;;;;;;;17.07;74.55;98064.88;5064104;28;20051;-47
2024/03/01 10:03:25;;;;;;;7.18;4.40;;;;;;;17.07;75.05;98068.31;5074752;28;20020;-47
2024/03/01 10:05:59;;;;;;;13.18;8.52;;;;;;;17.01;72.68;98066.69;5074671;28;20017;-47
2024/03/01 10:09:11;;;;;;;10.82;6.00;;;;;;;17.58;72.22;98055.25;5074670;28;20056;-47
2024/03/01 10:11:57;;;;;;;11.45;4.43;;;;;;;17.63;62.50;98051.81;5073616;28;20032;-46
2024/03/01 10:14:41;;;;;;;11.73;6.15;;;;;;;17.12;62.75;98056.94;5074458;28;20111;-46
2024/03/01 10:17:16;;;;;;;4.38;3.13;;;;;;;16.87;63.72;98058.41;5074583;28;20112;-47
2024/03/01 10:19:58;;;;;;;8.93;3.50;;;;;;;16.79;64.61;98050.91;5074179;28;20070;-47
2024/03/01 10:22:32;;;;;;;5.50;3.20;;;;;;;17.45;65.07;98053.09;5074436;28;20127;-47
2024/03/01 10:25:04;;;;;;;8.75;3.30;;;;;;;17.80;62.62;98045.47;5074354;28;20020;-46
2024/03/01 10:27:33;;;;;;;4.25;3.30;;;;;;;17.69;60.57;98034.84;5074329;28;20032;-45
2024/03/01 10:30:03;;;;;;;16.63;11.77;;;;;;;17.73;61.78;98038.56;5074200;28;20028;-45
2024/03/01 10:32:44;;;;;;;5.35;4.15;;;;;;;18.08;59.90;98029.06;5074542;28;20103;-46
2024/03/01 10:35:17;;;;;;;11.52;9.27;;;;;;;18.74;55.57;98024.78;5073907;28;20051;-46
2024/03/01 10:38:12;;;;;;;11.30;5.13;;;;;;;18.91;54.06;98017.31;5072861;28;20028;-46
2024/03/01 10:40:50;;;;;;;8.02;5.45;;;;;;;20.01;54.66;98022.59;5074044;28;20024;-45
2024/03/01 10:43:36;;;;;;;8.27;2.40;;;;;;;22.32;51.30;98011.88;5074000;28;20498;-46
2024/03/01 10:46:30;;;;;;;9.32;4.15;;;;;;;23.44;48.35;98013.47;5072664;28;20616;-47
2024/03/01 10:49:13;;;;;;;7.55;4.38;;;;;;;23.41;42.10;97996.13;5073904;28;20452;-47
2024/03/01 10:51:50;;;;;;;7.18;1.77;;;;;;;22.65;40.37;97993.88;5073839;28;20056;-47
2024/03/01 10:54:20;;;;;;;8.45;2.47;;;;;;;21.76;40.64;97997.50;5073822;28;20052;-47
2024/03/01 10:56:49;;;;;;;7.40;2.53;;;;;;;20.91;41.00;98009.81;5074006;28;20032;-47
2024/03/01 10:59:43;;;;;;;3.33;1.70;;;;;;;19.93;42.24;98012.53;5073717;28;20025;-48
2024/03/01 11:02:24;;;;;;;7.18;1.70;;;;;;;19.55;42.63;98012.22;5073679;28;20413;-47
2024/03/01 11:05:13;;;;;;;4.25;1.55;;;;;;;19.62;42.62;98009.25;5072307;28;20016;-47
2024/03/01 11:07:47;;;;;;;4.10;1.40;;;;;;;19.47;40.15;98004.81;5044824;28;20040;-46
2024/03/01 11:10:24;;;;;;;9.13;2.17;;;;;;;19.48;39.56;97999.22;5073552;28;20102;-46
2024/03/01 11:13:04;;;;;;;6.00;2.00;;;;;;;19.82;37.45;98000.38;5072242;28;20383;-46
2024/03/01 11:15:31;;;;;;;3.53;1.35;;;;;;;20.11;37.32;97987.88;5073329;28;20078;-45
2024/03/01 11:18:04;;;;;;;4.03;1.60;;;;;;;20.95;34.68;97992.94;5072062;28;20024;-47
2024/03/01 11:20:36;;;;;;;4.80;1.65;;;;;;;21.28;34.06;97986.94;5073257;28;20035;-47
2024/03/01 11:23:20;;;;;;;6.93;1.73;;;;;;;21.26;34.54;97987.19;5073222;28;20029;-47
2024/03/01 11:25:58;;;;;;;2.88;1.50;;;;;;;21.80;33.81;97984.34;5071966;28;20037;-47